KHSP/HSP METAR and TAF weather

Enter ICAO airport designator
Station Type Date Time Source
KHSP METAR 2020/04/03 22:55 UTC NOAA

KHSP 032255Z AUTO 30009G21KT 250V330 10SM CLR 11/M12 A2991 RMK AO2 T01111119


Station Type Date Time Source
KHSP Decoded METAR 2020/04/03 22:55 UTC NOAA

Hot Springs / Ingalls, VA, United States (KHSP) 37-57N 079-50W
Apr 03, 2020 - 06:55 PM EDT / 2020.04.03 2255 UTC
Wind: from the WNW (300 degrees) at 10 MPH (9 KT) gusting to 24 MPH (21 KT) (direction variable):0
Visibility: 10 mile(s):0
Sky conditions: clear
Temperature: 52.0 F (11.1 C)
Dew Point: 10.6 F (-11.9 C)
Relative Humidity: 18%
Pressure (altimeter): 29.91 in. Hg (1012 hPa)
ob: KHSP 032255Z AUTO 30009G21KT 250V330 10SM CLR 11/M12 A2991 RMK AO2 T01111119
cycle: 23

Station Type Date Time Source
KHSP TAF UTC NOAA

Error!

Example: see airport list